createdAt,value
2018-04-16T00:00:53.631Z,37.00
2018-04-16T00:03:20.872Z,39.73
2018-04-16T00:05:47.085Z,37.50
2018-04-16T00:08:13.341Z,44.33
2018-04-16T00:10:39.612Z,39.47
2018-04-16T00:13:05.878Z,39.43
2018-04-16T00:15:32.055Z,38.87
2018-04-16T00:17:58.255Z,39.40
2018-04-16T00:20:24.443Z,36.67
2018-04-16T00:22:50.655Z,35.60
2018-04-16T00:25:17.060Z,38.23
2018-04-16T00:27:43.236Z,37.00
2018-04-16T00:30:09.449Z,37.90
2018-04-16T00:32:41.655Z,36.87
2018-04-16T00:38:14.708Z,38.77
2018-04-16T00:40:46.996Z,40.23
2018-04-16T00:43:19.274Z,39.43
2018-04-16T00:45:51.494Z,45.67
2018-04-16T00:48:23.864Z,37.60
2018-04-16T00:54:13.534Z,38.60
2018-04-16T00:56:45.842Z,44.07
2018-04-16T00:59:18.137Z,40.83
2018-04-16T01:01:50.606Z,40.70
2018-04-16T01:04:22.931Z,41.50
2018-04-16T01:06:55.278Z,36.80
2018-04-16T01:09:27.731Z,41.00
2018-04-16T01:11:59.972Z,39.20
2018-04-16T01:14:32.221Z,37.80
2018-04-16T01:17:04.283Z,41.60
2018-04-16T01:19:36.495Z,41.60
2018-04-16T01:22:08.609Z,41.53
2018-04-16T01:24:41.733Z,46.40
2018-04-16T01:27:13.959Z,39.60
2018-04-16T01:29:46.027Z,38.77
2018-04-16T01:32:18.333Z,40.60
2018-04-16T01:34:50.522Z,44.70
2018-04-16T01:37:22.907Z,39.50
2018-04-16T01:39:55.204Z,42.53
2018-04-16T01:42:27.612Z,41.33
2018-04-16T01:44:59.813Z,45.00
2018-04-16T01:47:32.118Z,40.00
2018-04-16T01:50:04.408Z,43.43
2018-04-16T01:52:36.580Z,36.50
2018-04-16T01:55:08.843Z,46.73
2018-04-16T01:57:41.108Z,41.90
2018-04-16T02:00:13.315Z,39.90
2018-04-16T02:02:45.566Z,46.63
2018-04-16T02:05:17.748Z,42.97
2018-04-16T02:07:50.510Z,41.77
2018-04-16T02:10:22.969Z,46.90
2018-04-16T02:12:55.075Z,46.93
2018-04-16T02:15:27.327Z,41.90
2018-04-16T02:17:59.676Z,42.80
2018-04-16T02:20:31.884Z,44.17
2018-04-16T02:23:03.972Z,42.67
2018-04-16T02:25:37.186Z,44.47
2018-04-16T02:28:09.560Z,42.67
2018-04-16T02:30:41.851Z,46.30
2018-04-16T02:33:14.399Z,48.20
2018-04-16T02:35:46.624Z,40.97
2018-04-16T02:38:18.972Z,46.50
2018-04-16T02:40:51.083Z,44.47
2018-04-16T02:43:23.236Z,45.63
2018-04-16T02:45:55.448Z,47.70
2018-04-16T02:48:27.664Z,46.93
2018-04-16T02:50:59.861Z,44.87
2018-04-16T02:53:32.188Z,47.00
2018-04-16T02:56:04.335Z,48.47
2018-04-16T02:58:36.552Z,45.37
2018-04-16T03:01:08.631Z,43.00
2018-04-16T03:03:42.602Z,48.60
2018-04-16T03:06:14.936Z,46.70
2018-04-16T03:08:47.032Z,42.23
2018-04-16T03:11:19.155Z,48.50
2018-04-16T03:13:52.558Z,45.97
2018-04-16T03:16:24.930Z,48.67
2018-04-16T03:18:58.021Z,48.07
2018-04-16T03:21:31.123Z,47.10
2018-04-16T03:24:03.508Z,45.00
2018-04-16T03:26:36.438Z,47.20
2018-04-16T03:29:08.704Z,45.53
2018-04-16T03:31:41.698Z,41.10
2018-04-16T03:34:14.656Z,47.20
2018-04-16T03:36:46.819Z,46.00
2018-04-16T03:39:18.965Z,46.30
2018-04-16T03:41:51.283Z,45.27
2018-04-16T03:44:23.589Z,46.17
2018-04-16T03:46:55.911Z,50.37
2018-04-16T03:49:28.952Z,45.97
2018-04-16T03:52:01.249Z,43.00
2018-04-16T03:54:27.530Z,46.83
2018-04-16T03:56:54.422Z,47.17
2018-04-16T03:59:20.503Z,48.83
2018-04-16T04:01:46.775Z,45.47
2018-04-16T04:04:13.658Z,50.43
2018-04-16T04:06:39.790Z,39.53
2018-04-16T04:09:05.905Z,44.47
2018-04-16T04:11:32.760Z,44.73
2018-04-16T04:13:58.946Z,48.70
2018-04-16T04:16:25.043Z,45.30
2018-04-16T04:18:51.967Z,46.70
2018-04-16T04:21:18.178Z,50.17
2018-04-16T04:23:56.737Z,45.57
2018-04-16T04:26:35.456Z,44.93
2018-04-16T04:29:14.011Z,50.40
2018-04-16T04:31:41.044Z,45.53
2018-04-16T04:34:07.267Z,47.33
2018-04-16T04:36:33.457Z,44.57
2018-04-16T04:39:00.279Z,45.47
2018-04-16T04:41:26.406Z,51.47
2018-04-16T04:43:52.576Z,45.40
2018-04-16T04:46:18.768Z,47.00
2018-04-16T04:48:44.923Z,48.47
2018-04-16T04:51:11.047Z,48.53
2018-04-16T04:53:37.288Z,46.27
2018-04-16T04:56:03.442Z,53.20
2018-04-16T04:58:29.648Z,55.50
2018-04-16T05:00:55.805Z,54.00
2018-04-16T05:03:21.933Z,44.23
2018-04-16T05:05:48.091Z,46.27
2018-04-16T05:08:14.213Z,53.33
2018-04-16T05:10:40.441Z,49.93
2018-04-16T05:13:06.591Z,49.73
2018-04-16T05:15:32.753Z,51.47
2018-04-16T05:17:58.936Z,50.83
2018-04-16T05:20:25.772Z,48.83
2018-04-16T05:22:51.948Z,49.20
2018-04-16T05:25:18.078Z,50.53
2018-04-16T05:27:45.010Z,56.93
2018-04-16T05:30:11.191Z,51.93
2018-04-16T05:32:37.361Z,55.17
2018-04-16T05:35:03.482Z,50.40
2018-04-16T05:37:29.561Z,54.67
2018-04-16T05:39:55.651Z,54.93
2018-04-16T05:42:21.726Z,54.27
2018-04-16T05:44:47.823Z,51.30
2018-04-16T05:47:13.973Z,52.03
2018-04-16T05:49:40.069Z,62.37
2018-04-16T05:52:06.938Z,54.43
2018-04-16T05:54:33.015Z,59.13
2018-04-16T05:56:59.182Z,62.57
2018-04-16T05:59:25.288Z,54.20
2018-04-16T06:01:51.395Z,58.83
2018-04-16T06:04:17.531Z,55.43
2018-04-16T06:06:43.602Z,53.23
2018-04-16T06:09:09.724Z,53.07
2018-04-16T06:11:35.827Z,54.30
2018-04-16T06:14:02.766Z,57.77
2018-04-16T06:16:29.687Z,55.13
2018-04-16T06:18:55.774Z,53.00
2018-04-16T06:21:22.655Z,55.83
2018-04-16T06:23:48.749Z,56.30
2018-04-16T06:26:14.851Z,56.30
2018-04-16T06:28:40.951Z,54.50
2018-04-16T06:31:07.812Z,59.23
2018-04-16T06:33:33.934Z,58.53
2018-04-16T06:36:00.444Z,54.53
2018-04-16T06:38:26.544Z,61.43
2018-04-16T06:40:52.666Z,63.93
2018-04-16T06:43:19.495Z,61.90
2018-04-16T06:45:45.603Z,62.50
2018-04-16T06:48:11.735Z,72.37
2018-04-16T06:50:37.830Z,68.37
2018-04-16T06:53:04.679Z,69.23
2018-04-16T06:55:30.823Z,83.47
2018-04-16T06:57:57.639Z,64.50
2018-04-16T07:00:23.720Z,63.83
2018-04-16T07:02:49.879Z,76.00
2018-04-16T07:05:16.090Z,69.50
2018-04-16T07:07:42.187Z,78.33
2018-04-16T07:10:08.329Z,90.63
2018-04-16T07:12:34.497Z,89.07
2018-04-16T07:15:00.571Z,95.53
2018-04-16T07:17:26.687Z,83.17
2018-04-16T07:19:52.767Z,86.23
2018-04-16T07:22:18.846Z,87.57
2018-04-16T07:24:44.978Z,97.07
2018-04-16T07:27:11.107Z,82.10
2018-04-16T07:29:37.218Z,93.03
2018-04-16T07:32:03.323Z,83.77
2018-04-16T07:34:29.419Z,71.80
2018-04-16T07:36:55.501Z,76.70
2018-04-16T07:39:21.669Z,83.23
2018-04-16T07:41:47.815Z,83.10
2018-04-16T07:44:13.918Z,75.17
2018-04-16T07:46:40.052Z,74.20
2018-04-16T07:49:06.299Z,67.20
2018-04-16T07:51:32.435Z,68.20
2018-04-16T07:53:58.584Z,64.03
2018-04-16T07:56:24.708Z,66.60
2018-04-16T07:58:50.851Z,74.40
2018-04-16T08:01:16.999Z,77.43
2018-04-16T08:03:43.118Z,68.07
2018-04-16T08:06:09.342Z,62.23
2018-04-16T08:08:35.474Z,59.07
2018-04-16T08:11:01.697Z,64.47
2018-04-16T08:13:27.840Z,58.17
2018-04-16T08:15:54.033Z,56.77
2018-04-16T08:18:20.135Z,63.83
2018-04-16T08:20:46.333Z,63.17
2018-04-16T08:23:12.470Z,72.80
2018-04-16T08:25:38.563Z,65.20
2018-04-16T08:28:04.826Z,77.90
2018-04-16T08:30:30.967Z,69.13
2018-04-16T08:32:57.062Z,73.53
2018-04-16T08:35:23.911Z,61.87
2018-04-16T08:37:50.009Z,61.03
2018-04-16T08:40:16.109Z,68.10
2018-04-16T08:42:42.231Z,64.57
2018-04-16T08:45:08.339Z,62.80
2018-04-16T08:47:35.314Z,63.87
2018-04-16T08:50:01.456Z,65.63
2018-04-16T08:52:27.612Z,62.40
2018-04-16T08:54:54.458Z,66.37
2018-04-16T08:57:20.587Z,64.60
2018-04-16T08:59:46.715Z,75.17
2018-04-16T09:02:12.812Z,98.57
2018-04-16T09:04:38.909Z,99.27
2018-04-16T09:07:05.038Z,66.10
2018-04-16T09:09:31.169Z,77.33
2018-04-16T09:11:57.272Z,75.93
2018-04-16T09:14:23.368Z,90.53
2018-04-16T09:16:49.527Z,79.23
2018-04-16T09:19:15.678Z,75.93
2018-04-16T09:21:42.138Z,69.50
2018-04-16T09:24:08.226Z,72.30
2018-04-16T09:26:34.387Z,84.07
2018-04-16T09:29:00.499Z,96.30
2018-04-16T09:31:26.599Z,86.97
2018-04-16T09:33:52.724Z,85.17
2018-04-16T09:36:18.817Z,85.23
2018-04-16T09:38:44.972Z,76.57
2018-04-16T09:41:11.175Z,66.80
2018-04-16T09:43:37.321Z,64.97
2018-04-16T09:46:03.549Z,71.83
2018-04-16T09:48:29.685Z,68.70
2018-04-16T09:50:55.828Z,72.03
2018-04-16T09:53:22.021Z,65.57
2018-04-16T09:55:48.153Z,56.80
2018-04-16T09:58:14.274Z,50.80
2018-04-16T10:00:47.424Z,55.87
2018-04-16T10:03:17.388Z,51.90
2018-04-16T10:05:43.552Z,61.67
2018-04-16T10:08:10.407Z,68.73
2018-04-16T10:10:37.339Z,66.50
2018-04-16T10:13:03.489Z,60.90
2018-04-16T10:15:29.650Z,54.33
2018-04-16T10:17:55.782Z,66.30
2018-04-16T10:20:21.890Z,62.90
2018-04-16T10:22:47.994Z,60.27
2018-04-16T10:25:14.098Z,79.07
2018-04-16T10:27:40.207Z,63.97
2018-04-16T10:30:07.188Z,51.40
2018-04-16T10:32:33.367Z,73.13
2018-04-16T10:34:59.468Z,64.10
2018-04-16T10:37:26.327Z,56.93
2018-04-16T10:39:52.426Z,65.73
2018-04-16T10:42:18.518Z,56.00
2018-04-16T10:44:44.726Z,74.40
2018-04-16T10:47:11.101Z,61.03
2018-04-16T10:49:37.183Z,56.10
2018-04-16T10:52:03.347Z,62.27
2018-04-16T10:54:29.475Z,55.33
2018-04-16T10:56:55.567Z,66.23
2018-04-16T10:59:21.683Z,63.23
2018-04-16T11:01:48.522Z,48.37
2018-04-16T11:04:15.460Z,52.13
2018-04-16T11:06:41.642Z,49.90
2018-04-16T11:09:07.761Z,60.23
2018-04-16T11:11:34.599Z,73.93
2018-04-16T11:14:00.800Z,49.47
2018-04-16T11:16:26.908Z,65.10
2018-04-16T11:18:52.994Z,49.53
2018-04-16T11:21:19.262Z,49.93
2018-04-16T11:23:45.402Z,55.30
2018-04-16T11:26:12.233Z,43.03
2018-04-16T11:28:38.392Z,45.20
2018-04-16T11:31:05.240Z,55.00
2018-04-16T11:33:31.594Z,49.07
2018-04-16T11:35:58.450Z,43.17
2018-04-16T11:38:24.589Z,44.37
2018-04-16T11:40:50.688Z,41.33
2018-04-16T11:43:16.802Z,46.20
2018-04-16T11:45:43.655Z,39.80
2018-04-16T11:48:09.803Z,50.97
2018-04-16T11:50:35.988Z,38.27
2018-04-16T11:53:02.116Z,41.20
2018-04-16T11:55:28.320Z,35.27
2018-04-16T11:57:54.554Z,46.67
2018-04-16T12:00:20.642Z,39.73
2018-04-16T12:02:46.749Z,33.10
2018-04-16T12:05:12.824Z,32.60
2018-04-16T12:07:38.933Z,32.37
2018-04-16T12:10:05.039Z,34.37
2018-04-16T12:12:31.147Z,37.67
2018-04-16T12:14:58.006Z,38.23
2018-04-16T12:17:24.919Z,35.40
2018-04-16T12:19:51.065Z,37.60
2018-04-16T12:22:17.195Z,36.47
2018-04-16T12:24:43.868Z,37.80
2018-04-16T12:27:10.047Z,37.47
2018-04-16T12:29:36.167Z,36.37
2018-04-16T12:32:03.060Z,36.43
2018-04-16T12:34:29.164Z,41.10
2018-04-16T12:36:55.442Z,42.93
2018-04-16T12:39:21.723Z,38.80
2018-04-16T12:41:47.848Z,39.83
2018-04-16T12:44:13.943Z,33.73
2018-04-16T12:46:40.099Z,33.20
2018-04-16T12:49:06.230Z,36.13
2018-04-16T12:51:32.321Z,47.33
2018-04-16T12:53:58.386Z,35.60
2018-04-16T12:56:29.018Z,34.33
2018-04-16T12:58:55.735Z,40.53
2018-04-16T13:01:21.899Z,34.37
2018-04-16T13:03:48.008Z,41.00
2018-04-16T13:06:14.157Z,35.83
2018-04-16T13:08:40.325Z,32.17
2018-04-16T13:11:06.487Z,32.87
2018-04-16T13:13:32.640Z,32.00
2018-04-16T13:15:58.810Z,32.53
2018-04-16T13:18:25.035Z,31.53
2018-04-16T13:20:51.216Z,34.80
2018-04-16T13:23:17.883Z,31.50
2018-04-16T13:25:44.055Z,30.97
2018-04-16T13:28:10.206Z,29.43
2018-04-16T13:30:36.335Z,32.60
2018-04-16T13:33:02.457Z,29.90
2018-04-16T13:35:28.816Z,35.10
2018-04-16T13:37:54.902Z,35.10
2018-04-16T13:40:22.980Z,34.57
2018-04-16T13:42:49.839Z,31.57
2018-04-16T13:45:16.723Z,41.13
2018-04-16T13:47:42.847Z,33.50
2018-04-16T13:50:10.645Z,32.03
2018-04-16T13:52:36.733Z,35.93
2018-04-16T13:55:02.891Z,37.30
2018-04-16T13:57:30.770Z,34.77
2018-04-16T13:59:57.711Z,33.53
2018-04-16T14:02:23.855Z,33.20
2018-04-16T14:04:49.939Z,34.83
2018-04-16T14:07:16.027Z,35.77
2018-04-16T14:09:42.197Z,35.93
2018-04-16T14:12:08.331Z,39.37
2018-04-16T14:14:34.526Z,38.23
2018-04-16T14:17:00.703Z,35.03
2018-04-16T14:19:27.543Z,34.47
2018-04-16T14:21:53.672Z,37.77
2018-04-16T14:24:19.887Z,37.73
2018-04-16T14:26:45.980Z,39.60
2018-04-16T14:29:12.423Z,39.50
2018-04-16T14:31:38.566Z,42.70
2018-04-16T14:34:05.395Z,46.27
2018-04-16T14:36:31.509Z,48.10
2018-04-16T14:38:57.786Z,50.60
2018-04-16T14:41:23.868Z,48.50
2018-04-16T14:43:50.027Z,51.83
2018-04-16T14:46:16.171Z,56.50
2018-04-16T14:48:42.265Z,60.00
2018-04-16T14:51:08.343Z,57.77
2018-04-16T14:53:34.559Z,54.43
2018-04-16T14:56:00.681Z,52.97
2018-04-16T14:58:26.763Z,57.03
2018-04-16T15:00:52.924Z,61.80
2018-04-16T15:03:19.022Z,53.87
2018-04-16T15:05:45.090Z,53.27
2018-04-16T15:08:11.258Z,57.40
2018-04-16T15:10:38.144Z,62.27
2018-04-16T15:13:04.279Z,59.37
2018-04-16T15:15:30.520Z,56.47
2018-04-16T15:17:56.626Z,69.97
2018-04-16T15:20:22.743Z,70.70
2018-04-16T15:22:48.854Z,73.57
2018-04-16T15:25:14.948Z,64.80
2018-04-16T15:27:41.778Z,74.63
2018-04-16T15:30:07.927Z,76.10
2018-04-16T15:32:34.741Z,91.23
2018-04-16T15:35:00.849Z,70.50
2018-04-16T15:37:26.949Z,76.90
2018-04-16T15:39:53.778Z,73.37
2018-04-16T15:42:19.894Z,71.50
2018-04-16T15:44:45.969Z,68.90
2018-04-16T15:47:12.930Z,78.97
2018-04-16T15:49:39.881Z,81.13
2018-04-16T15:52:06.644Z,89.93
2018-04-16T15:54:32.723Z,76.03
2018-04-16T15:56:58.865Z,76.30
2018-04-16T15:59:24.932Z,83.80
2018-04-16T16:01:51.063Z,93.60
2018-04-16T16:04:17.184Z,86.60
2018-04-16T16:06:43.259Z,90.33
2018-04-16T16:09:09.409Z,102.07
2018-04-16T16:11:44.300Z,112.47
2018-04-16T16:14:10.471Z,91.93
2018-04-16T16:16:36.550Z,106.03
2018-04-16T16:19:03.414Z,112.47
2018-04-16T16:21:29.523Z,103.57
2018-04-16T16:23:56.339Z,94.97
2018-04-16T16:26:22.483Z,98.13
2018-04-16T16:28:48.583Z,103.70
2018-04-16T16:31:14.751Z,105.00
2018-04-16T16:33:40.899Z,107.53
2018-04-16T16:36:07.004Z,121.93
2018-04-16T16:38:33.125Z,131.53
2018-04-16T16:40:59.240Z,117.57
2018-04-16T16:43:26.091Z,96.97
2018-04-16T16:45:52.181Z,114.43
2018-04-16T16:48:18.308Z,115.30
2018-04-16T16:50:44.385Z,123.07
2018-04-16T16:53:10.502Z,107.57
2018-04-16T16:55:36.790Z,112.00
2018-04-16T16:58:02.877Z,117.77
2018-04-16T17:00:28.966Z,110.23
2018-04-16T17:02:55.140Z,113.53
2018-04-16T17:05:21.524Z,117.67
2018-04-16T17:07:48.176Z,114.00
2018-04-16T17:10:14.309Z,119.47
2018-04-16T17:12:40.414Z,130.87
2018-04-16T17:15:06.567Z,111.77
2018-04-16T17:17:34.414Z,93.03
2018-04-16T17:20:00.650Z,91.70
2018-04-16T17:22:26.708Z,95.03
2018-04-16T17:24:52.963Z,91.13
2018-04-16T17:27:19.026Z,90.03
2018-04-16T17:29:45.142Z,94.33
2018-04-16T17:32:11.258Z,85.67
2018-04-16T17:34:37.427Z,91.87
2018-04-16T17:37:03.502Z,110.97
2018-04-16T17:39:29.931Z,94.17
2018-04-16T17:41:56.059Z,82.13
2018-04-16T17:44:22.146Z,91.73
2018-04-16T17:46:48.242Z,83.60
2018-04-16T17:49:14.350Z,102.47
2018-04-16T17:51:40.430Z,87.13
2018-04-16T17:54:06.601Z,109.50
2018-04-16T17:56:33.407Z,88.10
2018-04-16T17:58:59.570Z,108.10
2018-04-16T18:01:25.676Z,81.00
2018-04-16T18:03:51.987Z,104.00
2018-04-16T18:06:18.229Z,103.83
2018-04-16T18:08:44.299Z,89.03
2018-04-16T18:11:10.406Z,82.30
2018-04-16T18:13:36.483Z,94.30
2018-04-16T18:16:02.593Z,92.13
2018-04-16T18:18:28.706Z,84.20
2018-04-16T18:20:54.846Z,89.60
2018-04-16T18:23:21.963Z,99.33
2018-04-16T18:25:48.883Z,97.73
2018-04-16T18:28:14.948Z,98.47
2018-04-16T18:30:41.107Z,98.20
2018-04-16T18:33:07.208Z,100.03
2018-04-16T18:35:33.298Z,99.63
2018-04-16T18:38:00.177Z,95.87
2018-04-16T18:40:26.279Z,103.27
2018-04-16T18:42:52.415Z,82.47
2018-04-16T18:45:18.494Z,102.23
2018-04-16T18:47:44.606Z,88.03
2018-04-16T18:50:11.569Z,92.20
2018-04-16T18:52:38.403Z,108.07
2018-04-16T18:55:04.576Z,99.97
2018-04-16T18:57:30.722Z,84.97
2018-04-16T18:59:56.941Z,91.03
2018-04-16T19:02:23.763Z,147.43
2018-04-16T19:04:49.838Z,92.03
2018-04-16T19:07:15.985Z,105.63
2018-04-16T19:09:42.070Z,132.27
2018-04-16T19:12:08.186Z,116.57
2018-04-16T19:14:34.321Z,129.70
2018-04-16T19:17:00.418Z,150.67
2018-04-16T19:19:27.315Z,198.17
2018-04-16T19:21:53.456Z,135.67
2018-04-16T19:24:19.592Z,151.27
2018-04-16T19:26:51.782Z,275.90
2018-04-16T19:29:17.867Z,122.73
2018-04-16T19:31:44.894Z,113.00
2018-04-16T19:34:17.105Z,136.07
2018-04-16T19:36:43.954Z,145.37
2018-04-16T19:39:10.073Z,148.90
2018-04-16T19:41:42.349Z,190.07
2018-04-16T19:44:08.549Z,111.33
2018-04-16T19:46:34.625Z,101.77
2018-04-16T19:49:06.802Z,122.67
2018-04-16T19:51:32.866Z,106.83
2018-04-16T19:53:59.719Z,84.50
2018-04-16T19:56:31.952Z,79.90
2018-04-16T19:58:58.076Z,81.13
2018-04-16T20:01:24.196Z,77.70
2018-04-16T20:03:58.019Z,79.50
2018-04-16T20:06:24.362Z,84.70
2018-04-16T20:08:50.487Z,75.03
2018-04-16T20:11:17.323Z,74.57
2018-04-16T20:13:43.654Z,64.63
2018-04-16T20:16:09.744Z,88.87
2018-04-16T20:18:35.859Z,70.63
2018-04-16T20:21:02.707Z,69.70
2018-04-16T20:23:28.786Z,76.80
2018-04-16T20:25:54.880Z,73.00
2018-04-16T20:28:35.936Z,83.03
2018-04-16T20:31:02.119Z,89.63
2018-04-16T20:33:28.951Z,81.63
2018-04-16T20:35:55.103Z,80.07
2018-04-16T20:38:21.205Z,86.57
2018-04-16T20:40:47.327Z,116.13
2018-04-16T20:43:13.468Z,123.00
2018-04-16T20:45:39.583Z,94.13
2018-04-16T20:48:05.692Z,89.60
2018-04-16T20:50:31.878Z,75.30
2018-04-16T20:52:57.979Z,84.30
2018-04-16T20:55:24.083Z,89.53
2018-04-16T20:57:50.203Z,101.10
2018-04-16T21:00:16.446Z,88.50
2018-04-16T21:02:42.644Z,86.60
2018-04-16T21:05:09.504Z,83.77
2018-04-16T21:07:36.338Z,86.90
2018-04-16T21:10:02.553Z,112.03
2018-04-16T21:12:28.683Z,85.13
2018-04-16T21:14:54.819Z,120.30
2018-04-16T21:17:20.939Z,96.43
2018-04-16T21:19:47.072Z,109.57
2018-04-16T21:22:13.205Z,95.43
2018-04-16T21:24:39.323Z,96.73
2018-04-16T21:27:06.274Z,104.97
2018-04-16T21:29:32.407Z,99.43
2018-04-16T21:31:59.297Z,92.90
2018-04-16T21:34:25.448Z,95.93
2018-04-16T21:36:51.625Z,99.93
2018-04-16T21:39:17.695Z,99.63
2018-04-16T21:41:44.612Z,98.97
2018-04-16T21:44:10.733Z,101.07
2018-04-16T21:46:36.871Z,107.00
2018-04-16T21:49:03.025Z,116.90
2018-04-16T21:51:29.223Z,106.93
2018-04-16T21:53:55.327Z,110.90
2018-04-16T21:56:21.468Z,108.73
2018-04-16T21:58:47.685Z,113.13
2018-04-16T22:01:13.776Z,101.10
2018-04-16T22:03:39.891Z,141.10
2018-04-16T22:06:06.735Z,104.77
2018-04-16T22:08:32.903Z,110.27
2018-04-16T22:10:59.199Z,102.13
2018-04-16T22:13:25.291Z,115.73
2018-04-16T22:15:51.407Z,95.00
2018-04-16T22:18:19.179Z,107.63
2018-04-16T22:20:46.018Z,98.70
2018-04-16T22:23:12.146Z,96.07
2018-04-16T22:25:38.289Z,109.47
2018-04-16T22:28:04.384Z,106.17
2018-04-16T22:30:30.903Z,99.70
2018-04-16T22:32:57.765Z,97.03
2018-04-16T22:35:23.871Z,102.97
2018-04-16T22:37:49.970Z,100.40
2018-04-16T22:40:16.099Z,101.80
2018-04-16T22:42:42.241Z,97.23
2018-04-16T22:45:08.353Z,101.73
2018-04-16T22:47:34.469Z,104.80
2018-04-16T22:50:00.601Z,106.50
2018-04-16T22:52:26.675Z,102.27
2018-04-16T22:55:00.608Z,96.00
2018-04-16T22:57:29.015Z,107.50
2018-04-16T22:59:56.508Z,100.63
2018-04-16T23:02:25.122Z,106.33
2018-04-16T23:04:51.258Z,94.93
2018-04-16T23:07:17.913Z,101.43
2018-04-16T23:09:44.097Z,97.10
2018-04-16T23:12:10.890Z,104.17
2018-04-16T23:14:38.495Z,97.07
2018-04-16T23:17:04.749Z,101.20
2018-04-16T23:19:31.405Z,94.37
2018-04-16T23:21:58.305Z,92.73
2018-04-16T23:24:25.542Z,90.50
2018-04-16T23:26:51.865Z,96.20
2018-04-16T23:29:18.948Z,93.40
2018-04-16T23:31:45.858Z,97.77
2018-04-16T23:34:20.047Z,96.87
2018-04-16T23:36:47.856Z,87.63
2018-04-16T23:39:15.916Z,86.70
2018-04-16T23:41:42.290Z,86.80
2018-04-16T23:44:09.114Z,113.07
2018-04-16T23:46:37.364Z,84.53
2018-04-16T23:49:04.441Z,96.43
2018-04-16T23:51:32.253Z,75.53
2018-04-16T23:54:00.175Z,79.60
2018-04-16T23:56:26.414Z,80.63
2018-04-16T23:58:52.590Z,71.60
